createdAt,value
2018-03-17T00:01:41.609Z,15.70
2018-03-17T00:04:09.091Z,16.23
2018-03-17T00:06:37.553Z,16.20
2018-03-17T00:09:05.068Z,17.27
2018-03-17T00:11:32.611Z,17.03
2018-03-17T00:14:00.090Z,16.80
2018-03-17T00:16:27.580Z,16.70
2018-03-17T00:18:55.063Z,17.27
2018-03-17T00:21:22.893Z,17.57
2018-03-17T00:23:50.399Z,16.40
2018-03-17T00:26:18.033Z,17.30
2018-03-17T00:28:45.524Z,18.47
2018-03-17T00:31:13.041Z,18.00
2018-03-17T00:33:40.537Z,17.83
2018-03-17T00:36:08.291Z,16.60
2018-03-17T00:38:35.765Z,16.63
2018-03-17T00:41:03.261Z,16.73
2018-03-17T00:43:31.384Z,17.27
2018-03-17T00:45:58.902Z,17.80
2018-03-17T00:48:26.643Z,19.73
2018-03-17T00:50:54.338Z,20.60
2018-03-17T00:53:21.843Z,21.10
2018-03-17T00:55:49.348Z,20.87
2018-03-17T00:58:17.628Z,20.03
2018-03-17T01:00:46.140Z,20.77
2018-03-17T01:03:13.615Z,22.17
2018-03-17T01:05:41.132Z,21.10
2018-03-17T01:08:09.027Z,20.13
2018-03-17T01:10:38.904Z,19.80
2018-03-17T01:13:06.386Z,21.10
2018-03-17T01:15:34.039Z,18.13
2018-03-17T01:18:01.670Z,15.13
2018-03-17T01:20:31.316Z,16.30
2018-03-17T01:22:58.862Z,14.60
2018-03-17T01:25:28.414Z,15.97
2018-03-17T01:27:55.997Z,14.33
2018-03-17T01:30:24.551Z,13.80
2018-03-17T01:32:53.517Z,14.53
2018-03-17T01:35:21.096Z,14.60
2018-03-17T01:37:49.057Z,13.37
2018-03-17T01:40:16.565Z,12.77
2018-03-17T01:42:44.070Z,14.80
2018-03-17T01:45:11.597Z,14.07
2018-03-17T01:47:39.500Z,13.70
2018-03-17T01:50:07.848Z,12.37
2018-03-17T01:52:35.352Z,12.47
2018-03-17T01:55:02.888Z,12.80
2018-03-17T01:57:30.356Z,12.77
2018-03-17T01:59:57.820Z,13.60
2018-03-17T02:02:25.320Z,12.50
2018-03-17T02:04:52.802Z,12.90
2018-03-17T02:07:20.321Z,12.90
2018-03-17T02:09:47.776Z,14.10
2018-03-17T02:12:15.284Z,12.30
2018-03-17T02:17:17.625Z,12.70
2018-03-17T02:19:46.824Z,13.43
2018-03-17T02:22:14.500Z,12.97
2018-03-17T02:24:42.786Z,12.90
2018-03-17T02:27:11.150Z,14.20
2018-03-17T02:29:38.718Z,15.33
2018-03-17T02:32:06.205Z,13.80
2018-03-17T02:34:33.913Z,14.07
2018-03-17T02:37:01.408Z,13.73
2018-03-17T02:39:28.974Z,14.30
2018-03-17T02:41:56.440Z,14.70
2018-03-17T02:44:23.905Z,16.00
2018-03-17T02:46:51.401Z,13.97
2018-03-17T02:49:19.296Z,15.40
2018-03-17T02:51:47.537Z,14.73
2018-03-17T02:54:15.027Z,16.20
2018-03-17T02:56:43.006Z,15.33
2018-03-17T02:59:10.492Z,16.63
2018-03-17T03:01:37.959Z,16.03
2018-03-17T03:04:05.442Z,17.13
2018-03-17T03:06:32.924Z,16.93
2018-03-17T03:09:00.449Z,16.97
2018-03-17T03:11:27.942Z,17.50
2018-03-17T03:13:55.437Z,19.07
2018-03-17T03:16:22.928Z,18.60
2018-03-17T03:18:50.429Z,19.10
2018-03-17T03:21:18.033Z,18.77
2018-03-17T03:23:45.520Z,19.03
2018-03-17T03:26:13.120Z,20.90
2018-03-17T03:28:40.650Z,18.93
2018-03-17T03:31:08.154Z,19.40
2018-03-17T03:33:35.620Z,20.67
2018-03-17T03:36:03.077Z,21.43
2018-03-17T03:38:31.047Z,21.00
2018-03-17T03:40:58.559Z,20.70
2018-03-17T03:43:26.039Z,20.30
2018-03-17T03:45:53.501Z,21.67
2018-03-17T03:48:20.995Z,20.90
2018-03-17T03:50:48.667Z,20.73
2018-03-17T03:53:16.170Z,22.47
2018-03-17T03:55:43.658Z,21.70
2018-03-17T03:58:11.154Z,21.13
2018-03-17T04:00:39.375Z,21.63
2018-03-17T04:03:06.918Z,22.67
2018-03-17T04:05:34.427Z,21.67
2018-03-17T04:08:01.943Z,22.03
2018-03-17T04:10:30.142Z,23.33
2018-03-17T04:12:57.608Z,21.70
2018-03-17T04:15:25.086Z,25.23
2018-03-17T04:17:52.548Z,23.23
2018-03-17T04:20:20.036Z,24.80
2018-03-17T04:22:47.536Z,26.40
2018-03-17T04:25:15.016Z,25.03
2018-03-17T04:27:42.563Z,24.80
2018-03-17T04:30:10.074Z,28.17
2018-03-17T04:32:37.572Z,26.17
2018-03-17T04:35:05.128Z,27.70
2018-03-17T04:37:32.666Z,27.73
2018-03-17T04:40:00.158Z,28.80
2018-03-17T04:42:27.762Z,25.57
2018-03-17T04:44:55.241Z,29.60
2018-03-17T04:47:22.724Z,27.57
2018-03-17T04:49:50.186Z,28.30
2018-03-17T04:52:17.762Z,28.17
2018-03-17T04:54:45.492Z,29.23
2018-03-17T04:57:12.990Z,27.17
2018-03-17T04:59:40.484Z,29.52
2018-03-17T05:02:08.000Z,27.40
2018-03-17T05:04:35.472Z,28.07
2018-03-17T05:07:02.961Z,27.77
2018-03-17T05:09:30.441Z,25.77
2018-03-17T05:11:57.900Z,28.70
2018-03-17T05:14:25.399Z,29.05
2018-03-17T05:16:53.268Z,28.87
2018-03-17T05:19:20.732Z,27.80
2018-03-17T05:21:48.217Z,28.17
2018-03-17T05:24:15.688Z,27.50
2018-03-17T05:26:43.248Z,26.87
2018-03-17T05:29:10.800Z,28.33
2018-03-17T05:31:38.276Z,27.50
2018-03-17T05:34:05.754Z,29.53
2018-03-17T05:36:33.202Z,27.70
2018-03-17T05:39:00.702Z,29.70
2018-03-17T05:41:28.232Z,29.07
2018-03-17T05:43:55.708Z,27.83
2018-03-17T05:46:23.232Z,30.10
2018-03-17T05:48:50.702Z,30.53
2018-03-17T05:51:19.284Z,30.95
2018-03-17T05:53:46.753Z,29.23
2018-03-17T05:56:14.472Z,29.65
2018-03-17T05:58:41.988Z,30.05
2018-03-17T06:01:09.465Z,28.70
2018-03-17T06:03:36.953Z,31.10
2018-03-17T06:06:04.433Z,29.13
2018-03-17T06:08:33.297Z,28.33
2018-03-17T06:11:00.764Z,28.40
2018-03-17T06:13:28.293Z,28.40
2018-03-17T06:15:55.775Z,30.40
2018-03-17T06:18:24.507Z,29.83
2018-03-17T06:20:52.032Z,27.07
2018-03-17T06:23:19.508Z,29.40
2018-03-17T06:25:47.009Z,27.67
2018-03-17T06:28:14.572Z,27.23
2018-03-17T06:30:42.115Z,29.58
2018-03-17T06:33:09.597Z,28.53
2018-03-17T06:35:37.084Z,28.07
2018-03-17T06:38:04.562Z,28.37
2018-03-17T06:40:32.095Z,29.20
2018-03-17T06:42:59.614Z,29.52
2018-03-17T06:45:27.084Z,28.23
2018-03-17T06:47:54.656Z,26.17
2018-03-17T06:50:22.192Z,28.97
2018-03-17T06:52:49.913Z,28.93
2018-03-17T06:55:17.501Z,29.58
2018-03-17T06:57:45.001Z,28.77
2018-03-17T07:00:12.573Z,30.70
2018-03-17T07:02:40.504Z,34.50
2018-03-17T07:05:08.278Z,35.47
2018-03-17T07:07:35.781Z,30.73
2018-03-17T07:10:04.278Z,32.60
2018-03-17T07:12:31.748Z,32.10
2018-03-17T07:14:59.353Z,32.30
2018-03-17T07:17:26.908Z,33.17
2018-03-17T07:19:54.391Z,32.07
2018-03-17T07:22:21.848Z,35.10
2018-03-17T07:24:49.565Z,33.07
2018-03-17T07:27:17.101Z,35.60
2018-03-17T07:29:44.837Z,33.60
2018-03-17T07:32:12.288Z,33.67
2018-03-17T07:34:39.755Z,32.77
2018-03-17T07:37:07.317Z,32.60
2018-03-17T07:39:34.803Z,35.90
2018-03-17T07:42:02.274Z,33.87
2018-03-17T07:44:30.238Z,32.97
2018-03-17T07:46:57.724Z,34.73
2018-03-17T07:49:25.816Z,34.53
2018-03-17T07:51:53.276Z,35.47
2018-03-17T07:54:20.829Z,33.40
2018-03-17T07:56:48.291Z,34.70
2018-03-17T07:59:15.784Z,35.20
2018-03-17T08:01:43.274Z,40.03
2018-03-17T08:04:10.853Z,35.57
2018-03-17T08:06:38.306Z,35.87
2018-03-17T08:09:05.792Z,33.97
2018-03-17T08:11:33.254Z,33.17
2018-03-17T08:14:00.696Z,33.97
2018-03-17T08:16:28.502Z,35.40
2018-03-17T08:18:55.989Z,33.20
2018-03-17T08:21:23.512Z,33.80
2018-03-17T08:23:51.072Z,33.30
2018-03-17T08:26:22.456Z,32.00
2018-03-17T08:28:49.977Z,33.03
2018-03-17T08:31:17.644Z,34.30
2018-03-17T08:33:45.120Z,33.57
2018-03-17T08:36:12.663Z,33.00
2018-03-17T08:38:40.153Z,32.47
2018-03-17T08:41:07.615Z,32.77
2018-03-17T08:43:35.104Z,34.07
2018-03-17T08:46:02.683Z,35.20
2018-03-17T08:48:30.262Z,34.87
2018-03-17T08:50:57.765Z,34.13
2018-03-17T08:53:25.257Z,33.30
2018-03-17T08:55:52.891Z,33.53
2018-03-17T08:58:20.408Z,37.43
2018-03-17T09:00:48.662Z,33.20
2018-03-17T09:03:16.506Z,34.93
2018-03-17T09:05:44.017Z,35.50
2018-03-17T09:08:11.542Z,34.30
2018-03-17T09:10:39.097Z,35.40
2018-03-17T09:13:06.588Z,35.27
2018-03-17T09:15:34.113Z,34.17
2018-03-17T09:18:01.822Z,34.10
2018-03-17T09:20:29.488Z,34.37
2018-03-17T09:22:57.046Z,32.70
2018-03-17T09:25:24.665Z,35.00
2018-03-17T09:27:52.215Z,35.23
2018-03-17T09:30:19.740Z,34.70
2018-03-17T09:32:47.223Z,33.90
2018-03-17T09:35:14.697Z,32.13
2018-03-17T09:37:42.477Z,33.00
2018-03-17T09:40:09.977Z,34.13
2018-03-17T09:42:37.427Z,33.90
2018-03-17T09:45:04.915Z,32.00
2018-03-17T09:47:32.411Z,34.73
2018-03-17T09:49:59.919Z,34.67
2018-03-17T09:52:27.487Z,31.50
2018-03-17T09:54:55.045Z,34.20
2018-03-17T09:57:23.433Z,32.60
2018-03-17T09:59:50.946Z,32.47
2018-03-17T10:02:18.563Z,32.87
2018-03-17T10:04:46.178Z,32.30
2018-03-17T10:07:13.737Z,30.57
2018-03-17T10:09:41.288Z,31.80
2018-03-17T10:12:08.778Z,30.00
2018-03-17T10:14:36.331Z,33.80
2018-03-17T10:17:03.934Z,30.40
2018-03-17T10:19:31.477Z,30.53
2018-03-17T10:21:59.019Z,31.37
2018-03-17T10:24:26.755Z,30.60
2018-03-17T10:26:55.379Z,28.83
2018-03-17T10:29:22.881Z,30.13
2018-03-17T10:31:50.365Z,29.27
2018-03-17T10:34:17.841Z,30.10
2018-03-17T10:36:48.510Z,27.77
2018-03-17T10:39:16.349Z,28.20
2018-03-17T10:41:43.948Z,27.50
2018-03-17T10:44:11.441Z,27.97
2018-03-17T10:46:38.953Z,29.60
2018-03-17T10:49:06.419Z,29.70
2018-03-17T10:51:33.901Z,29.30
2018-03-17T10:54:01.388Z,29.70
2018-03-17T10:56:28.972Z,30.80
2018-03-17T10:58:56.508Z,29.33
2018-03-17T11:01:25.915Z,30.70
2018-03-17T11:03:53.379Z,33.17
2018-03-17T11:06:21.107Z,31.10
2018-03-17T11:21:43.740Z,28.20
2018-03-17T11:24:11.329Z,30.20
2018-03-17T11:26:38.867Z,30.90
2018-03-17T11:29:06.931Z,31.73
2018-03-17T11:31:37.348Z,32.20
2018-03-17T11:34:08.250Z,33.40
2018-03-17T11:52:40.917Z,34.05
2018-03-17T11:55:08.492Z,35.15
2018-03-17T11:57:36.042Z,34.20
2018-03-17T12:00:04.354Z,34.30
2018-03-17T12:02:32.362Z,35.28
2018-03-17T12:04:59.868Z,35.35
2018-03-17T12:07:28.858Z,36.00
2018-03-17T12:09:56.501Z,37.92
2018-03-17T12:12:24.328Z,36.33
2018-03-17T12:14:51.977Z,37.88
2018-03-17T12:17:19.757Z,37.25
2018-03-17T12:19:47.337Z,36.33
2018-03-17T12:22:19.507Z,37.50
2018-03-17T12:24:48.821Z,37.28
2018-03-17T12:27:20.628Z,37.92
2018-03-17T12:29:48.216Z,35.00
2018-03-17T12:32:16.184Z,38.33
2018-03-17T12:34:43.699Z,39.38
2018-03-17T12:37:12.351Z,40.20
2018-03-17T12:39:39.976Z,39.38
2018-03-17T12:42:07.826Z,39.38
2018-03-17T12:44:37.524Z,36.83
2018-03-17T12:47:05.958Z,38.28
2018-03-17T12:49:34.841Z,36.90
2018-03-17T13:05:02.099Z,32.95
2018-03-17T13:07:29.652Z,36.63
2018-03-17T13:09:57.199Z,35.45
2018-03-17T13:12:26.756Z,36.42
2018-03-17T13:14:58.459Z,35.58
2018-03-17T13:29:21.484Z,34.75
2018-03-17T13:31:49.448Z,33.40
2018-03-17T13:37:00.962Z,38.15
2018-03-17T13:39:28.666Z,34.15
2018-03-17T13:41:56.151Z,38.22
2018-03-17T13:44:23.624Z,37.47
2018-03-17T13:46:52.367Z,37.13
2018-03-17T13:49:20.824Z,35.40
2018-03-17T13:51:48.304Z,37.10
2018-03-17T13:54:15.796Z,35.55
2018-03-17T13:56:43.312Z,35.78
2018-03-17T13:59:10.796Z,34.97
2018-03-17T14:01:39.411Z,35.78
2018-03-17T14:04:06.891Z,35.78
2018-03-17T14:06:34.436Z,35.92
2018-03-17T14:09:01.923Z,39.03
2018-03-17T14:11:30.322Z,36.78
2018-03-17T14:14:02.474Z,38.42
2018-03-17T14:16:31.686Z,35.75
2018-03-17T14:18:59.236Z,38.85
2018-03-17T14:21:26.727Z,38.30
2018-03-17T14:23:54.307Z,36.42
2018-03-17T14:26:21.755Z,37.95
2018-03-17T14:28:49.461Z,37.17
2018-03-17T14:31:17.146Z,38.13
2018-03-17T14:33:44.547Z,36.85
2018-03-17T14:36:12.044Z,36.20
2018-03-17T14:38:40.316Z,38.03
2018-03-17T14:41:07.847Z,35.80
2018-03-17T14:43:35.375Z,36.05
2018-03-17T14:46:02.882Z,36.67
2018-03-17T14:48:30.980Z,38.00
2018-03-17T14:50:58.539Z,39.25
2018-03-17T14:53:26.116Z,37.08
2018-03-17T14:55:53.771Z,39.17
2018-03-17T14:58:21.601Z,37.03
2018-03-17T15:00:49.105Z,37.88
2018-03-17T15:03:17.104Z,37.78
2018-03-17T15:05:44.587Z,36.80
2018-03-17T15:08:12.130Z,38.67
2018-03-17T15:10:39.677Z,38.20
2018-03-17T15:13:08.873Z,36.78
2018-03-17T15:15:38.080Z,36.38
2018-03-17T15:18:05.707Z,37.20
2018-03-17T15:20:34.878Z,39.10
2018-03-17T15:23:02.457Z,36.65
2018-03-17T15:25:29.962Z,38.50
2018-03-17T15:27:57.456Z,37.97
2018-03-17T15:30:26.864Z,37.58
2018-03-17T15:32:54.356Z,39.65
2018-03-17T15:35:21.828Z,39.70
2018-03-17T15:37:49.488Z,40.53
2018-03-17T15:40:17.508Z,37.53
2018-03-17T15:42:45.097Z,38.80
2018-03-17T15:45:17.756Z,40.22
2018-03-17T15:47:49.932Z,37.97
2018-03-17T15:50:19.584Z,38.80
2018-03-17T15:52:50.639Z,38.00
2018-03-17T15:55:18.225Z,38.92
2018-03-17T15:57:45.742Z,37.50
2018-03-17T16:00:13.228Z,39.95
2018-03-17T16:02:41.375Z,38.28
2018-03-17T16:05:08.883Z,35.10
2018-03-17T16:07:36.687Z,36.40
2018-03-17T16:10:06.199Z,37.42
2018-03-17T16:12:33.757Z,37.20
2018-03-17T16:15:01.243Z,36.47
2018-03-17T16:17:28.981Z,34.58
2018-03-17T16:19:56.482Z,36.58
2018-03-17T16:22:24.004Z,34.47
2018-03-17T16:24:53.222Z,35.67
2018-03-17T16:27:20.945Z,35.72
2018-03-17T16:29:49.384Z,34.63
2018-03-17T16:32:18.271Z,33.53
2018-03-17T16:34:46.172Z,34.75
2018-03-17T16:37:13.757Z,33.70
2018-03-17T16:39:41.265Z,33.95
2018-03-17T16:42:08.776Z,32.95
2018-03-17T16:44:36.529Z,32.35
2018-03-17T16:47:04.149Z,31.48
2018-03-17T16:49:31.676Z,30.30
2018-03-17T16:51:59.214Z,31.35
2018-03-17T16:54:28.283Z,33.50
2018-03-17T16:56:55.949Z,38.65
2018-03-17T16:59:23.463Z,46.95
2018-03-17T17:01:50.955Z,35.53
2018-03-17T17:04:18.443Z,34.28
2018-03-17T17:06:46.228Z,32.92
2018-03-17T17:09:13.813Z,29.67
2018-03-17T17:11:41.312Z,29.37
2018-03-17T17:14:08.831Z,36.78
2018-03-17T17:16:36.324Z,36.78
2018-03-17T17:19:03.816Z,32.60
2018-03-17T17:21:31.407Z,33.20
2018-03-17T17:23:58.946Z,31.73
2018-03-17T17:26:26.488Z,30.25
2018-03-17T17:28:53.968Z,29.20
2018-03-17T17:31:21.761Z,30.05
2018-03-17T17:33:49.283Z,29.42
2018-03-17T17:36:17.481Z,27.48
2018-03-17T17:38:44.977Z,28.23
2018-03-17T17:41:14.597Z,30.60
2018-03-17T17:56:45.281Z,34.22
2018-03-17T17:59:13.319Z,33.00
2018-03-17T18:11:30.356Z,31.02
2018-03-17T18:29:34.658Z,32.90
2018-03-17T18:32:02.375Z,30.65
2018-03-17T18:34:29.985Z,33.20
2018-03-17T18:36:59.544Z,32.97
2018-03-17T18:39:27.281Z,31.52
2018-03-17T18:41:54.800Z,33.83
2018-03-17T18:44:22.292Z,30.00
2018-03-17T18:46:49.830Z,30.48
2018-03-17T18:49:17.437Z,31.23
2018-03-17T18:51:44.923Z,27.80
2018-03-17T18:54:12.434Z,27.98
2018-03-17T18:56:39.948Z,28.95
2018-03-17T18:59:07.450Z,28.25
2018-03-17T19:01:34.943Z,28.70
2018-03-17T19:04:02.472Z,30.98
2018-03-17T19:06:29.982Z,28.62
2018-03-17T19:08:57.481Z,27.55
2018-03-17T19:11:24.993Z,28.65
2018-03-17T19:13:52.550Z,27.33
2018-03-17T19:16:20.032Z,33.88
2018-03-17T19:18:47.525Z,27.60
2018-03-17T19:21:15.040Z,28.12
2018-03-17T19:23:42.622Z,30.08
2018-03-17T19:26:10.135Z,28.75
2018-03-17T19:28:37.632Z,25.52
2018-03-17T19:31:05.181Z,31.98
2018-03-17T19:33:32.653Z,27.90
2018-03-17T19:36:00.131Z,25.52
2018-03-17T19:38:27.619Z,25.75
2018-03-17T19:40:55.167Z,25.45
2018-03-17T19:43:22.665Z,27.27
2018-03-17T19:45:50.182Z,23.27
2018-03-17T19:48:17.747Z,25.48
2018-03-17T19:50:45.249Z,24.83
2018-03-17T19:53:12.724Z,23.02
2018-03-17T19:55:40.259Z,24.60
2018-03-17T19:58:07.745Z,23.05
2018-03-17T20:00:35.220Z,25.65
2018-03-17T20:03:02.759Z,25.42
2018-03-17T20:05:30.296Z,25.00
2018-03-17T20:07:57.828Z,25.35
2018-03-17T20:10:25.355Z,22.83
2018-03-17T20:12:52.833Z,21.98
2018-03-17T20:15:20.356Z,24.63
2018-03-17T20:17:47.862Z,26.60
2018-03-17T20:20:16.595Z,26.33
2018-03-17T20:22:44.132Z,25.95
2018-03-17T20:25:11.651Z,26.62
2018-03-17T20:27:39.142Z,25.00
2018-03-17T20:30:06.630Z,23.87
2018-03-17T20:32:34.107Z,24.48
2018-03-17T20:35:01.659Z,22.75
2018-03-17T20:37:29.169Z,24.27
2018-03-17T20:39:56.644Z,23.80
2018-03-17T20:42:24.510Z,23.55
2018-03-17T20:44:52.034Z,25.12
2018-03-17T20:47:19.530Z,21.55
2018-03-17T20:49:46.996Z,22.75
2018-03-17T20:52:14.769Z,22.73
2018-03-17T20:54:42.252Z,22.23
2018-03-17T20:57:09.736Z,21.83
2018-03-17T20:59:37.223Z,20.37
2018-03-17T21:02:04.753Z,22.13
2018-03-17T21:04:32.251Z,22.75
2018-03-17T21:06:59.772Z,21.05
2018-03-17T21:09:27.261Z,19.65
2018-03-17T21:11:54.837Z,20.85
2018-03-17T21:14:22.331Z,20.88
2018-03-17T21:16:49.840Z,21.27
2018-03-17T21:19:17.388Z,19.85
2018-03-17T21:21:44.869Z,20.98
2018-03-17T21:24:12.376Z,21.55
2018-03-17T21:26:39.908Z,23.98
2018-03-17T21:29:07.447Z,21.67
2018-03-17T21:31:34.966Z,20.85
2018-03-17T21:34:02.436Z,20.20
2018-03-17T21:36:29.923Z,18.73
2018-03-17T21:38:57.425Z,23.23
2018-03-17T21:41:24.926Z,22.15
2018-03-17T21:43:52.464Z,19.10
2018-03-17T21:46:20.123Z,19.25
2018-03-17T21:48:47.747Z,16.67
2018-03-17T21:53:48.542Z,17.67
2018-03-17T21:56:17.092Z,15.95
2018-03-17T21:58:46.276Z,16.08
2018-03-17T22:01:13.743Z,15.20
2018-03-17T22:03:42.033Z,14.77
2018-03-17T22:06:09.813Z,16.27
2018-03-17T22:11:21.110Z,18.20
2018-03-17T22:16:23.186Z,15.43
2018-03-17T22:28:34.277Z,14.93
2018-03-17T22:31:02.810Z,15.02
2018-03-17T22:33:30.318Z,15.55
2018-03-17T22:35:59.831Z,14.52
2018-03-17T22:51:23.425Z,14.10
2018-03-17T22:53:50.915Z,14.15
2018-03-17T22:56:18.399Z,13.62
2018-03-17T22:58:45.866Z,15.07
2018-03-17T23:01:13.352Z,13.70
2018-03-17T23:03:40.842Z,14.75
2018-03-17T23:06:08.356Z,15.75
2018-03-17T23:08:35.822Z,14.25
2018-03-17T23:11:03.352Z,14.38
2018-03-17T23:13:30.859Z,13.77
2018-03-17T23:15:58.361Z,14.55
2018-03-17T23:18:26.584Z,14.05
2018-03-17T23:30:35.325Z,12.57
2018-03-17T23:33:03.171Z,13.60
2018-03-17T23:35:35.023Z,14.25
2018-03-17T23:38:04.301Z,12.88
2018-03-17T23:40:36.259Z,12.52
2018-03-17T23:43:04.086Z,12.32
2018-03-17T23:45:45.765Z,12.55
2018-03-17T23:48:14.869Z,11.70
2018-03-17T23:50:42.898Z,11.98
2018-03-17T23:53:10.488Z,12.90
2018-03-17T23:55:38.161Z,13.70
2018-03-17T23:58:07.910Z,12.52
